createdAt,value
2022-08-04T00:01:51.812Z,24.64
2022-08-04T00:04:31.609Z,24.64
2022-08-04T00:07:14.051Z,24.55
2022-08-04T00:09:55.710Z,24.35
2022-08-04T00:12:31.756Z,24.33
2022-08-04T00:15:10.468Z,24.28
2022-08-04T00:17:54.717Z,24.34
2022-08-04T00:20:29.029Z,24.33
2022-08-04T00:22:57.741Z,24.36
2022-08-04T00:25:25.508Z,24.26
2022-08-04T00:27:54.461Z,24.35
2022-08-04T00:30:21.840Z,24.23
2022-08-04T00:33:02.269Z,24.24
2022-08-04T00:35:36.190Z,24.24
2022-08-04T00:38:06.130Z,24.28
2022-08-04T00:40:48.854Z,24.24
2022-08-04T00:43:34.265Z,24.22
2022-08-04T00:46:19.962Z,24.21
2022-08-04T00:49:08.829Z,24.16
2022-08-04T00:51:36.085Z,24.10
2022-08-04T00:54:44.935Z,24.02
2022-08-04T00:57:43.563Z,24.00
2022-08-04T01:00:14.230Z,23.92
2022-08-04T01:02:53.332Z,23.84
2022-08-04T01:05:50.597Z,23.81
2022-08-04T01:08:53.112Z,23.80
2022-08-04T01:11:31.623Z,23.70
2022-08-04T01:14:18.005Z,23.68
2022-08-04T01:16:51.743Z,23.58
2022-08-04T01:20:07.765Z,23.68
2022-08-04T01:23:25.190Z,23.53
2022-08-04T01:26:43.134Z,23.33
2022-08-04T01:29:23.902Z,23.29
2022-08-04T01:32:07.266Z,23.31
2022-08-04T01:34:40.751Z,23.22
2022-08-04T01:37:31.675Z,23.19
2022-08-04T01:40:17.669Z,23.02
2022-08-04T01:42:47.689Z,22.99
2022-08-04T01:45:36.776Z,22.90
2022-08-04T01:48:06.841Z,23.09
2022-08-04T01:50:43.278Z,22.97
2022-08-04T01:53:16.401Z,23.02
2022-08-04T01:55:54.795Z,23.05
2022-08-04T01:58:25.280Z,23.02
2022-08-04T02:01:05.125Z,23.14
2022-08-04T02:04:19.911Z,23.30
2022-08-04T02:07:10.150Z,23.39
2022-08-04T02:09:53.949Z,23.30
2022-08-04T02:12:49.661Z,23.14
2022-08-04T02:15:22.847Z,23.21
2022-08-04T02:18:24.876Z,23.14
2022-08-04T02:20:59.703Z,23.14
2022-08-04T02:23:39.175Z,23.19
2022-08-04T02:26:22.746Z,23.16
2022-08-04T02:29:08.759Z,23.16
2022-08-04T02:31:46.253Z,23.17
2022-08-04T02:34:47.670Z,23.16
2022-08-04T02:37:17.647Z,23.09
2022-08-04T02:39:48.922Z,22.96
2022-08-04T02:42:24.512Z,22.98
2022-08-04T02:44:52.220Z,22.91
2022-08-04T02:48:28.905Z,22.84
2022-08-04T02:50:37.584Z,22.96
2022-08-04T02:53:08.834Z,22.92
2022-08-04T02:55:41.628Z,22.70
2022-08-04T02:58:23.185Z,22.71
2022-08-04T03:00:51.999Z,22.81
2022-08-04T03:03:44.746Z,22.87
2022-08-04T03:06:11.972Z,22.86
2022-08-04T03:09:08.332Z,22.85
2022-08-04T03:11:44.609Z,22.70
2022-08-04T03:14:36.814Z,22.63
2022-08-04T03:17:58.979Z,22.67
2022-08-04T03:20:41.352Z,22.69
2022-08-04T03:23:48.758Z,22.67
2022-08-04T03:26:26.201Z,22.69
2022-08-04T03:29:43.577Z,22.67
2022-08-04T03:32:22.873Z,22.64
2022-08-04T03:35:27.757Z,22.51
2022-08-04T03:38:22.841Z,22.50
2022-08-04T03:41:11.862Z,22.55
2022-08-04T03:44:03.189Z,22.62
2022-08-04T03:46:42.027Z,22.56
2022-08-04T03:49:40.770Z,22.48
2022-08-04T03:52:53.803Z,22.48
2022-08-04T03:55:33.780Z,22.47
2022-08-04T03:58:33.948Z,22.53
2022-08-04T04:01:18.232Z,22.46
2022-08-04T04:04:18.710Z,22.47
2022-08-04T04:07:21.536Z,22.45
2022-08-04T04:10:19.191Z,22.49
2022-08-04T04:13:09.748Z,22.39
2022-08-04T04:16:28.959Z,22.44
2022-08-04T04:19:12.230Z,22.54
2022-08-04T04:22:22.302Z,22.56
2022-08-04T04:25:06.165Z,22.55
2022-08-04T04:27:48.097Z,22.51
2022-08-04T04:30:22.508Z,22.46
2022-08-04T04:33:01.891Z,22.48
2022-08-04T04:35:47.920Z,22.52
2022-08-04T04:38:34.425Z,22.51
2022-08-04T04:41:40.039Z,22.46
2022-08-04T04:44:53.780Z,22.45
2022-08-04T04:48:08.645Z,22.50
2022-08-04T04:51:11.994Z,22.60
2022-08-04T04:54:13.505Z,22.64
2022-08-04T04:57:09.762Z,22.68
2022-08-04T04:59:41.793Z,22.76
2022-08-04T05:02:08.944Z,22.88
2022-08-04T05:04:55.475Z,22.87
2022-08-04T05:08:43.492Z,23.00
2022-08-04T05:11:40.378Z,23.06
2022-08-04T05:14:37.122Z,23.11
2022-08-04T05:17:10.591Z,23.14
2022-08-04T05:20:01.404Z,23.19
2022-08-04T05:22:49.542Z,23.24
2022-08-04T05:25:23.620Z,23.29
2022-08-04T05:28:24.716Z,23.33
2022-08-04T05:30:59.117Z,23.42
2022-08-04T05:33:34.457Z,23.54
2022-08-04T05:36:21.057Z,23.58
2022-08-04T05:38:55.328Z,23.63
2022-08-04T05:41:22.805Z,23.67
2022-08-04T05:43:56.458Z,23.70
2022-08-04T05:46:25.847Z,23.73
2022-08-04T05:48:56.885Z,23.75
2022-08-04T05:51:29.413Z,23.73
2022-08-04T05:53:58.845Z,23.74
2022-08-04T05:56:26.589Z,23.75
2022-08-04T05:58:55.065Z,23.85
2022-08-04T06:01:55.353Z,23.92
2022-08-04T06:04:27.959Z,23.99
2022-08-04T06:06:55.793Z,23.99
2022-08-04T06:09:23.204Z,24.05
2022-08-04T06:12:00.988Z,24.07
2022-08-04T06:14:43.788Z,24.13
2022-08-04T06:19:57.589Z,24.17
2022-08-04T06:20:19.431Z,24.19
2022-08-04T06:23:03.869Z,24.22
2022-08-04T06:25:43.233Z,24.24
2022-08-04T06:28:11.714Z,24.26
2022-08-04T06:30:49.730Z,24.26
2022-08-04T06:33:54.301Z,24.27
2022-08-04T06:36:24.601Z,24.31
2022-08-04T06:38:58.415Z,24.31
2022-08-04T06:41:29.478Z,24.34
2022-08-04T06:44:03.309Z,24.35
2022-08-04T06:46:32.071Z,24.33
2022-08-04T06:48:59.414Z,24.40
2022-08-04T06:51:38.021Z,24.48
2022-08-04T06:54:12.492Z,24.55
2022-08-04T06:56:41.140Z,24.62
2022-08-04T06:59:11.025Z,24.68
2022-08-04T07:01:42.869Z,24.73
2022-08-04T07:04:10.390Z,24.78
2022-08-04T07:06:46.778Z,24.83
2022-08-04T07:09:18.413Z,24.92
2022-08-04T07:11:47.238Z,24.96
2022-08-04T07:14:36.020Z,25.05
2022-08-04T07:17:09.385Z,25.13
2022-08-04T07:19:37.180Z,25.21
2022-08-04T07:22:25.381Z,25.28
2022-08-04T07:24:57.821Z,25.34
2022-08-04T07:27:48.743Z,25.40
2022-08-04T07:30:15.394Z,25.45
2022-08-04T07:32:47.602Z,25.50
2022-08-04T07:36:10.152Z,25.58
2022-08-04T07:38:26.510Z,25.63
2022-08-04T07:40:56.137Z,25.70
2022-08-04T07:43:23.907Z,25.79
2022-08-04T07:46:10.324Z,25.90
2022-08-04T07:48:46.503Z,25.99
2022-08-04T07:51:15.553Z,26.02
2022-08-04T07:53:54.065Z,26.11
2022-08-04T07:56:28.351Z,26.17
2022-08-04T07:58:56.214Z,26.27
2022-08-04T08:01:24.759Z,26.30
2022-08-04T08:03:55.029Z,26.36
2022-08-04T08:06:43.423Z,26.36
2022-08-04T08:09:15.164Z,26.42
2022-08-04T08:12:36.051Z,26.49
2022-08-04T08:14:38.460Z,26.52
2022-08-04T08:17:07.085Z,26.56
2022-08-04T08:19:35.472Z,26.61
2022-08-04T08:22:20.910Z,26.72
2022-08-04T08:24:48.256Z,26.86
2022-08-04T08:27:36.812Z,26.99
2022-08-04T08:30:06.713Z,27.03
2022-08-04T08:32:33.890Z,27.08
2022-08-04T08:35:04.053Z,27.12
2022-08-04T08:37:41.823Z,27.14
2022-08-04T08:40:15.774Z,27.24
2022-08-04T08:42:53.329Z,27.29
2022-08-04T08:45:43.421Z,27.36
2022-08-04T08:48:58.717Z,27.39
2022-08-04T08:51:56.137Z,27.46
2022-08-04T08:55:12.413Z,27.47
2022-08-04T08:58:00.928Z,27.58
2022-08-04T09:00:47.956Z,27.70
2022-08-04T09:03:24.988Z,27.78
2022-08-04T09:06:13.008Z,27.96
2022-08-04T09:08:53.990Z,28.07
2022-08-04T09:11:50.123Z,28.16
2022-08-04T09:14:39.833Z,28.31
2022-08-04T09:17:27.221Z,28.53
2022-08-04T09:20:04.014Z,28.75
2022-08-04T09:22:49.941Z,28.93
2022-08-04T09:25:34.529Z,29.07
2022-08-04T09:28:50.917Z,29.16
2022-08-04T09:31:19.966Z,29.21
2022-08-04T09:33:58.936Z,29.08
2022-08-04T09:36:46.650Z,28.95
2022-08-04T09:39:37.207Z,28.89
2022-08-04T09:42:34.675Z,28.93
2022-08-04T09:45:26.183Z,29.01
2022-08-04T09:48:08.061Z,29.11
2022-08-04T09:50:50.010Z,29.12
2022-08-04T09:53:42.008Z,29.13
2022-08-04T09:56:28.137Z,29.27
2022-08-04T09:59:49.848Z,29.46
2022-08-04T10:02:26.677Z,29.74
2022-08-04T10:05:03.628Z,29.92
2022-08-04T10:08:16.636Z,29.90
2022-08-04T10:11:12.263Z,29.89
2022-08-04T10:13:51.852Z,30.01
2022-08-04T10:16:44.045Z,30.29
2022-08-04T10:19:35.217Z,30.53
2022-08-04T10:22:28.849Z,30.77
2022-08-04T10:26:03.101Z,30.95
2022-08-04T10:28:14.185Z,31.08
2022-08-04T10:31:00.809Z,31.07
2022-08-04T10:33:32.941Z,31.17
2022-08-04T10:36:04.603Z,31.24
2022-08-04T10:38:40.474Z,31.41
2022-08-04T10:41:39.882Z,31.51
2022-08-04T10:44:48.329Z,31.49
2022-08-04T10:47:43.872Z,31.57
2022-08-04T10:50:23.473Z,31.57
2022-08-04T10:53:05.784Z,31.51
2022-08-04T10:56:06.450Z,31.33
2022-08-04T10:58:48.714Z,31.33
2022-08-04T11:02:01.519Z,31.31
2022-08-04T11:04:49.832Z,31.24
2022-08-04T11:07:18.169Z,31.31
2022-08-04T11:09:46.538Z,31.47
2022-08-04T11:12:26.303Z,31.74
2022-08-04T11:15:01.271Z,31.89
2022-08-04T11:17:36.021Z,32.03
2022-08-04T11:20:33.999Z,32.22
2022-08-04T11:23:02.331Z,32.37
2022-08-04T11:25:48.482Z,32.42
2022-08-04T11:29:12.705Z,32.56
2022-08-04T11:31:48.449Z,32.76
2022-08-04T11:34:23.508Z,32.78
2022-08-04T11:37:28.707Z,32.74
2022-08-04T11:40:33.050Z,32.63
2022-08-04T11:43:09.852Z,32.60
2022-08-04T11:45:50.831Z,32.67
2022-08-04T11:48:25.757Z,32.74
2022-08-04T11:50:55.149Z,32.74
2022-08-04T11:53:26.214Z,32.68
2022-08-04T11:56:11.275Z,32.63
2022-08-04T11:58:39.856Z,32.54
2022-08-04T12:01:27.997Z,32.49
2022-08-04T12:04:23.731Z,32.40
2022-08-04T12:07:29.586Z,32.37
2022-08-04T12:10:41.823Z,32.52
2022-08-04T12:13:31.583Z,32.68
2022-08-04T12:16:13.955Z,32.75
2022-08-04T12:18:58.469Z,32.72
2022-08-04T12:21:39.189Z,32.63
2022-08-04T12:24:20.024Z,32.47
2022-08-04T12:27:16.850Z,32.38
2022-08-04T12:30:57.502Z,32.31
2022-08-04T12:33:12.814Z,32.18
2022-08-04T12:36:10.375Z,32.08
2022-08-04T12:39:06.548Z,31.86
2022-08-04T12:42:01.378Z,31.74
2022-08-04T12:44:53.945Z,31.73
2022-08-04T12:47:29.726Z,31.73
2022-08-04T12:50:03.956Z,31.83
2022-08-04T12:55:29.988Z,32.11
2022-08-04T12:57:58.488Z,32.29
2022-08-04T13:00:43.746Z,32.42
2022-08-04T13:03:14.724Z,32.40
2022-08-04T13:06:00.642Z,32.52
2022-08-04T13:08:28.385Z,32.56
2022-08-04T13:11:20.418Z,32.48
2022-08-04T13:14:10.944Z,32.50
2022-08-04T13:17:02.284Z,32.62
2022-08-04T13:19:31.376Z,32.65
2022-08-04T13:22:29.045Z,32.96
2022-08-04T13:26:40.624Z,33.23
2022-08-04T13:27:48.724Z,33.13
2022-08-04T13:30:25.809Z,33.02
2022-08-04T13:32:58.761Z,32.95
2022-08-04T13:35:56.018Z,32.95
2022-08-04T13:38:31.926Z,32.94
2022-08-04T13:41:04.720Z,33.01
2022-08-04T13:44:19.628Z,33.19
2022-08-04T13:46:53.204Z,33.32
2022-08-04T13:50:00.880Z,33.46
2022-08-04T13:52:29.646Z,33.46
2022-08-04T13:55:36.299Z,33.48
2022-08-04T13:58:14.293Z,33.39
2022-08-04T14:01:09.754Z,33.24
2022-08-04T14:03:54.481Z,33.03
2022-08-04T14:06:49.381Z,33.02
2022-08-04T14:09:22.465Z,32.98
2022-08-04T14:12:46.490Z,33.16
2022-08-04T14:14:59.942Z,33.58
2022-08-04T14:17:30.529Z,33.93
2022-08-04T14:20:00.879Z,34.14
2022-08-04T14:22:28.212Z,34.20
2022-08-04T14:24:59.225Z,34.24
2022-08-04T14:27:47.992Z,34.32
2022-08-04T14:30:28.909Z,34.27
2022-08-04T14:34:01.090Z,34.48
2022-08-04T14:36:04.664Z,34.73
2022-08-04T14:39:00.441Z,34.72
2022-08-04T14:41:32.418Z,34.46
2022-08-04T14:44:02.952Z,34.40
2022-08-04T14:46:36.496Z,34.34
2022-08-04T14:49:10.478Z,34.69
2022-08-04T14:51:46.397Z,34.69
2022-08-04T14:54:34.557Z,34.38
2022-08-04T14:57:05.626Z,34.01
2022-08-04T15:00:01.635Z,33.99
2022-08-04T15:02:38.559Z,33.70
2022-08-04T15:06:02.507Z,33.58
2022-08-04T15:08:18.310Z,33.40
2022-08-04T15:11:03.872Z,33.35
2022-08-04T15:13:38.737Z,33.17
2022-08-04T15:16:08.359Z,33.11
2022-08-04T15:18:37.487Z,33.04
2022-08-04T15:21:05.588Z,32.98
2022-08-04T15:23:39.819Z,32.83
2022-08-04T15:26:15.426Z,32.82
2022-08-04T15:29:10.984Z,32.64
2022-08-04T15:32:05.739Z,32.51
2022-08-04T15:34:50.443Z,32.48
2022-08-04T15:37:31.108Z,32.39
2022-08-04T15:40:33.005Z,32.31
2022-08-04T15:43:27.529Z,32.20
2022-08-04T15:46:43.903Z,31.90
2022-08-04T15:49:18.017Z,31.75
2022-08-04T15:52:12.173Z,31.68
2022-08-04T15:54:52.617Z,31.65
2022-08-04T15:58:01.987Z,31.47
2022-08-04T16:00:49.592Z,31.43
2022-08-04T16:03:55.330Z,31.33
2022-08-04T16:06:27.477Z,31.19
2022-08-04T16:09:03.366Z,31.06
2022-08-04T16:11:40.524Z,30.87
2022-08-04T16:14:12.075Z,30.77
2022-08-04T16:16:42.213Z,30.59
2022-08-04T16:20:02.642Z,30.60
2022-08-04T16:22:39.439Z,30.43
2022-08-04T16:25:48.124Z,30.43
2022-08-04T16:28:34.378Z,30.40
2022-08-04T16:31:16.494Z,30.35
2022-08-04T16:33:46.910Z,30.31
2022-08-04T16:37:01.567Z,30.30
2022-08-04T16:39:31.667Z,30.25
2022-08-04T16:42:36.396Z,30.32
2022-08-04T16:45:09.061Z,30.39
2022-08-04T16:47:48.456Z,30.36
2022-08-04T16:50:20.718Z,30.35
2022-08-04T16:52:55.598Z,30.42
2022-08-04T16:55:27.820Z,30.36
2022-08-04T16:57:58.769Z,30.31
2022-08-04T17:00:35.796Z,30.27
2022-08-04T17:03:21.357Z,30.19
2022-08-04T17:05:48.988Z,30.15
2022-08-04T17:08:35.495Z,30.00
2022-08-04T17:11:02.790Z,30.07
2022-08-04T17:14:01.769Z,30.02
2022-08-04T17:16:40.267Z,29.94
2022-08-04T17:19:25.283Z,29.87
2022-08-04T17:22:02.636Z,29.84
2022-08-04T17:24:33.550Z,29.81
2022-08-04T17:27:00.952Z,29.90
2022-08-04T17:29:46.560Z,29.98
2022-08-04T17:32:21.160Z,30.06
2022-08-04T17:35:07.685Z,29.88
2022-08-04T17:37:52.058Z,29.73
2022-08-04T17:44:05.241Z,29.51
2022-08-04T17:46:52.437Z,29.52
2022-08-04T17:49:24.816Z,29.51
2022-08-04T17:52:41.470Z,29.59
2022-08-04T17:55:16.304Z,29.68
2022-08-04T17:58:21.046Z,29.75
2022-08-04T18:01:16.388Z,29.75
2022-08-04T18:05:05.694Z,29.77
2022-08-04T18:08:39.364Z,29.82
2022-08-04T18:10:56.071Z,29.77
2022-08-04T18:13:26.011Z,29.68
2022-08-04T18:16:21.864Z,29.59
2022-08-04T18:19:10.174Z,29.52
2022-08-04T18:21:59.343Z,29.52
2022-08-04T18:24:34.536Z,29.50
2022-08-04T18:27:45.694Z,29.50
2022-08-04T18:30:38.222Z,29.46
2022-08-04T18:33:40.148Z,29.42
2022-08-04T18:36:33.182Z,29.34
2022-08-04T18:42:05.366Z,29.21
2022-08-04T18:44:52.144Z,29.22
2022-08-04T18:47:29.549Z,29.14
2022-08-04T18:51:00.985Z,29.04
2022-08-04T18:53:08.239Z,28.94
2022-08-04T18:55:56.519Z,28.84
2022-08-04T18:58:27.363Z,28.80
2022-08-04T19:01:04.161Z,28.62
2022-08-04T19:03:45.596Z,28.57
2022-08-04T19:06:33.277Z,28.50
2022-08-04T19:09:00.928Z,28.45
2022-08-04T19:11:54.592Z,28.32
2022-08-04T19:14:22.679Z,28.22
2022-08-04T19:16:49.983Z,28.10
2022-08-04T19:19:18.213Z,28.05
2022-08-04T19:22:00.575Z,28.00
2022-08-04T19:24:34.451Z,27.89
2022-08-04T19:27:08.355Z,27.83
2022-08-04T19:29:45.166Z,27.72
2022-08-04T19:32:31.908Z,27.69
2022-08-04T19:34:59.061Z,27.65
2022-08-04T19:38:01.211Z,27.60
2022-08-04T19:43:36.406Z,27.54
2022-08-04T19:46:17.705Z,27.48
2022-08-04T19:49:03.576Z,27.47
2022-08-04T19:51:38.922Z,27.40
2022-08-04T19:54:16.693Z,27.37
2022-08-04T19:56:51.282Z,27.17
2022-08-04T19:59:21.826Z,27.12
2022-08-04T20:01:56.317Z,27.11
2022-08-04T20:04:41.983Z,-141.77
2022-08-04T20:07:14.295Z,-141.77
2022-08-04T20:10:00.145Z,-141.77
2022-08-04T20:12:33.016Z,-141.77
2022-08-04T20:15:00.594Z,27.10
2022-08-04T20:18:08.210Z,27.02
2022-08-04T20:20:15.063Z,26.96
2022-08-04T20:22:52.553Z,26.92
2022-08-04T20:25:36.436Z,26.89
2022-08-04T20:28:10.461Z,26.85
2022-08-04T20:31:11.214Z,26.82
2022-08-04T20:33:49.205Z,26.73
2022-08-04T20:36:41.280Z,26.76
2022-08-04T20:39:18.544Z,26.71
2022-08-04T20:42:07.260Z,26.54
2022-08-04T20:44:46.206Z,26.53
2022-08-04T20:47:21.225Z,26.46
2022-08-04T20:49:49.685Z,26.45
2022-08-04T20:52:20.720Z,26.40
2022-08-04T20:54:56.180Z,26.35
2022-08-04T20:57:48.393Z,26.39
2022-08-04T21:00:26.385Z,26.31
2022-08-04T21:03:15.510Z,26.24
2022-08-04T21:05:44.315Z,26.22
2022-08-04T21:08:30.233Z,26.13
2022-08-04T21:11:00.782Z,26.13
2022-08-04T21:13:51.964Z,26.12
2022-08-04T21:16:53.821Z,26.14
2022-08-04T21:19:15.221Z,26.09
2022-08-04T21:21:50.093Z,25.97
2022-08-04T21:24:26.313Z,25.94
2022-08-04T21:26:56.853Z,25.92
2022-08-04T21:29:42.412Z,25.93
2022-08-04T21:32:13.385Z,25.87
2022-08-04T21:35:00.390Z,25.80
2022-08-04T21:37:56.655Z,25.81
2022-08-04T21:40:38.791Z,25.79
2022-08-04T21:43:08.257Z,25.75
2022-08-04T21:45:36.237Z,25.75
2022-08-04T21:48:05.036Z,25.77
2022-08-04T21:50:32.178Z,25.70
2022-08-04T21:53:03.064Z,25.67
2022-08-04T21:56:04.976Z,25.68
2022-08-04T21:58:38.476Z,25.63
2022-08-04T22:01:51.571Z,25.62
2022-08-04T22:04:25.781Z,25.68
2022-08-04T22:07:11.286Z,25.69
2022-08-04T22:09:41.618Z,25.69
2022-08-04T22:12:23.321Z,25.70
2022-08-04T22:14:57.596Z,25.59
2022-08-04T22:17:29.447Z,25.61
2022-08-04T22:20:04.330Z,25.63
2022-08-04T22:22:43.205Z,25.65
2022-08-04T22:25:18.512Z,25.67
2022-08-04T22:28:04.442Z,25.67
2022-08-04T22:30:37.556Z,25.65
2022-08-04T22:33:23.597Z,25.52
2022-08-04T22:36:13.061Z,25.42
2022-08-04T22:39:06.565Z,25.28
2022-08-04T22:41:48.300Z,25.16
2022-08-04T22:44:16.412Z,25.25
2022-08-04T22:46:43.713Z,25.19
2022-08-04T22:49:12.968Z,25.12
2022-08-04T22:51:50.624Z,25.01
2022-08-04T22:54:36.638Z,24.78
2022-08-04T22:57:03.834Z,24.88
2022-08-04T22:59:42.620Z,24.93
2022-08-04T23:02:10.396Z,24.71
2022-08-04T23:04:38.025Z,24.61
2022-08-04T23:07:09.489Z,24.48
2022-08-04T23:09:50.777Z,24.30
2022-08-04T23:12:27.280Z,24.33
2022-08-04T23:15:13.418Z,24.43
2022-08-04T23:17:43.816Z,24.41
2022-08-04T23:20:39.723Z,24.43
2022-08-04T23:23:12.296Z,24.40
2022-08-04T23:26:08.700Z,24.39
2022-08-04T23:28:38.457Z,24.20
2022-08-04T23:31:05.693Z,24.03
2022-08-04T23:33:50.460Z,24.04
2022-08-04T23:36:29.361Z,24.15
2022-08-04T23:39:03.897Z,24.17
2022-08-04T23:41:57.707Z,24.17
2022-08-04T23:44:26.629Z,24.08
2022-08-04T23:48:15.079Z,24.02
2022-08-04T23:50:05.629Z,24.11
2022-08-04T23:52:52.780Z,24.29
2022-08-04T23:55:21.300Z,24.34
2022-08-04T23:58:18.874Z,24.26
